Time;durP1;ratioP1;P1;durP2;ratioP2;P2;SDS_P1;SDS_P2;PMS_P1;PMS_P2;Temp;Humidity;BMP_temperature;BMP_pressure;BME280_temperature;BME280_humidity;BME280_pressure;Samples;Min_cycle;Max_cycle;Signal;HPM_P1;HPM_P2
2021/01/26 00:05:55;;;;;;;46.73;21.20;;;;;;;-0.22;86.98;97996.80;4256598;80;21178;-87
2021/01/26 00:30:08;;;;;;;53.10;22.70;;;;;;;-0.21;86.76;98015.88;4449495;77;22327;-86
2021/01/26 00:36:34;;;;;;;48.57;22.73;;;;;;;-0.24;86.76;98021.91;4277921;80;21185;-86
2021/01/26 00:43:17;;;;;;;47.93;22.47;;;;;;;-0.20;86.51;98026.05;4439345;79;24871;-87
2021/01/26 00:49:56;;;;;;;53.77;22.17;;;;;;;-0.31;86.75;98029.70;4320170;80;21605;-86
2021/01/26 00:56:30;;;;;;;48.77;21.60;;;;;;;-0.33;86.59;98037.30;4330814;80;21180;-87
2021/01/26 01:13:59;;;;;;;58.13;22.50;;;;;;;-0.41;86.73;98056.19;4568150;76;25854;-86
2021/01/26 01:20:48;;;;;;;;;;;;;;;;;;;;;
2021/01/26 01:38:20;;;;;;;;;;;;;;;;;;;;;
2021/01/26 01:45:00;;;;;;;48.67;19.03;;;;;;;-0.36;87.22;98066.77;4341627;80;27786;-87
2021/01/26 01:51:20;;;;;;;42.00;19.03;;;;;;;-0.46;87.01;98061.75;4256836;81;21164;-87
2021/01/26 02:08:58;;;;;;;34.43;20.80;;;;;;;-0.53;87.26;98060.12;4265789;77;28719;-87
2021/01/26 02:26:25;;;;;;;50.77;23.03;;;;;;;-0.35;86.91;98068.33;4364632;78;22344;-87
2021/01/26 02:33:27;;;;;;;50.53;24.73;;;;;;;-0.41;87.09;98068.29;4226107;81;21199;-87
2021/01/26 02:40:07;;;;;;;55.20;25.73;;;;;;;-0.45;87.09;98068.69;4216455;82;21396;-87
2021/01/26 02:47:03;;;;;;;57.93;25.00;;;;;;;-0.41;87.17;98077.70;4297271;80;22301;-86
2021/01/26 03:22:42;;;;;;;60.83;27.03;;;;;;;-0.69;86.89;98097.52;4093730;85;21386;-87
2021/01/26 03:29:35;;;;;;;;;;;;;;;;;;;;;
2021/01/26 03:47:17;;;;;;;;;;;;;;;;;;;;;
2021/01/26 03:54:29;;;;;;;56.53;24.30;;;;;;;-0.87;87.27;98114.03;4382760;80;21233;-87
2021/01/26 04:18:37;;;;;;;;;;;;;;;-0.87;87.13;98111.34;4334956;80;21079;-88
2021/01/26 04:36:06;;;;;;;;;;;;;;;;;;;;;
2021/01/26 04:42:34;;;;;;;;;;;;;;;;;;;;;
2021/01/26 04:49:32;;;;;;;;;;;;;;;;;;;;;
2021/01/26 05:39:47;;;;;;;42.07;20.37;;;;;;;-0.64;87.81;98190.64;4478943;75;21202;-86
2021/01/26 05:46:09;;;;;;;48.77;21.17;;;;;;;-0.62;87.71;98196.47;4390710;80;21186;-89
2021/01/26 06:03:32;;;;;;;45.33;25.37;;;;;;;-0.65;87.45;98208.66;4482353;75;28092;-89
2021/01/26 06:09:59;;;;;;;57.00;26.52;;;;;;;-0.51;87.46;98217.86;4580945;77;21177;-88
2021/01/26 06:55:55;;;;;;;45.03;21.93;;;;;;;-0.81;87.85;98257.84;4183060;80;75103;-88
2021/01/26 07:02:29;;;;;;;50.63;22.67;;;;;;;-0.79;87.72;98264.50;4127845;84;22128;-87
2021/01/26 07:09:02;;;;;;;45.63;20.90;;;;;;;-0.76;87.63;98269.78;4132558;84;21213;-91
2021/01/26 07:15:28;;;;;;;39.93;19.23;;;;;;;-0.74;87.46;98264.89;3996120;84;36010;-92
2021/01/26 07:21:41;;;;;;;41.23;19.57;;;;;;;-0.72;87.57;98272.08;3881054;88;21250;-93
2021/01/26 07:27:48;;;;;;;45.97;21.00;;;;;;;-0.67;87.54;98274.58;3986677;86;34680;-94
2021/01/26 07:33:58;;;;;;;48.40;22.20;;;;;;;-0.64;87.62;98282.04;4004061;86;21378;-93
2021/01/26 07:40:30;;;;;;;46.27;21.37;;;;;;;-0.68;87.55;98284.56;4005166;86;22133;-93
2021/01/26 07:47:21;;;;;;;42.47;19.80;;;;;;;-0.55;87.68;98298.36;4361997;76;27069;-91
2021/01/26 07:53:37;;;;;;;53.37;25.23;;;;;;;-0.51;87.51;98297.97;4161298;83;29545;-91
2021/01/26 07:59:46;;;;;;;54.67;25.43;;;;;;;-0.39;87.57;98301.33;4210660;83;31423;-91
2021/01/26 08:05:55;;;;;;;61.13;25.13;;;;;;;-0.34;87.29;98302.51;4221169;83;21725;-91
2021/01/26 08:12:09;;;;;;;57.88;26.23;;;;;;;-0.17;87.40;98297.08;4350747;75;29453;-91
2021/01/26 08:18:28;;;;;;;67.40;29.70;;;;;;;-0.16;87.14;98299.44;4172518;84;21271;-93
2021/01/26 08:24:35;;;;;;;86.85;35.23;;;;;;;-0.14;86.97;98303.16;4173946;84;21155;-94
2021/01/26 08:30:49;;;;;;;68.43;28.80;;;;;;;-0.05;86.91;98316.05;4186245;84;21218;-92
2021/01/26 08:37:16;;;;;;;52.57;24.27;;;;;;;-0.02;86.85;98320.20;4185399;84;21206;-93
2021/01/26 08:43:42;;;;;;;57.00;25.10;;;;;;;0.02;86.84;98329.01;4171463;84;21187;-91
2021/01/26 08:49:44;;;;;;;49.60;21.63;;;;;;;0.12;86.68;98337.51;4169418;84;21709;-92
2021/01/26 08:56:00;;;;;;;40.88;19.35;;;;;;;0.11;86.06;98331.10;4188809;84;21743;-93
2021/01/26 09:02:03;;;;;;;46.20;21.02;;;;;;;0.14;86.28;98341.22;4163110;84;22367;-92
2021/01/26 09:08:05;;;;;;;49.20;22.82;;;;;;;0.27;86.18;98351.00;4157168;84;21226;-92
2021/01/26 09:14:42;;;;;;;49.83;22.83;;;;;;;0.26;86.10;98360.97;4174935;84;21783;-90
2021/01/26 09:20:45;;;;;;;52.30;25.03;;;;;;;0.14;86.12;98362.20;4176404;84;21212;-91
2021/01/26 09:26:46;;;;;;;55.78;24.10;;;;;;;0.12;86.59;98374.39;4195050;83;34695;-92
2021/01/26 09:32:56;;;;;;;51.50;23.40;;;;;;;0.12;86.78;98377.87;4209016;82;21204;-91
2021/01/26 09:39:11;;;;;;;47.78;21.37;;;;;;;0.22;86.71;98372.13;4517399;76;22637;-92
2021/01/26 09:45:17;;;;;;;47.48;21.75;;;;;;;0.20;86.29;98383.80;4422101;79;21180;-93
2021/01/26 09:51:30;;;;;;;41.55;19.98;;;;;;;0.32;86.40;98383.09;4391719;79;21411;-91
2021/01/26 09:57:34;;;;;;;37.15;18.17;;;;;;;0.54;86.16;98383.66;4421880;79;21191;-92
2021/01/26 10:03:37;;;;;;;42.00;20.17;;;;;;;0.62;85.35;98389.56;4417822;79;21619;-94
2021/01/26 10:09:41;;;;;;;42.88;20.25;;;;;;;1.05;84.60;98399.52;4418056;79;21133;-92
2021/01/26 10:15:43;;;;;;;46.33;20.15;;;;;;;1.05;84.60;98399.52;4418597;79;21319;-93
2021/01/26 10:21:44;;;;;;;44.90;19.77;;;;;;;0.94;84.66;98400.25;4417067;79;21274;-93
2021/01/26 10:27:50;;;;;;;42.35;19.87;;;;;;;0.68;84.62;98394.19;4318443;81;21195;-92
2021/01/26 10:33:53;;;;;;;48.02;21.77;;;;;;;1.05;84.54;98400.87;4319585;80;22398;-91
2021/01/26 10:40:20;;;;;;;42.00;20.52;;;;;;;1.05;84.54;98400.87;4280245;81;22446;-94
2021/01/26 10:46:36;;;;;;;43.20;22.15;;;;;;;1.59;84.02;98392.30;4285965;81;21191;-94
2021/01/26 10:52:45;;;;;;;38.67;20.02;;;;;;;1.90;83.96;98401.30;4272479;81;21162;-90
2021/01/26 10:58:48;;;;;;;45.85;22.80;;;;;;;1.57;82.70;98388.59;4271131;81;21206;-92
2021/01/26 11:04:52;;;;;;;44.70;20.50;;;;;;;1.41;83.87;98400.29;4282062;81;21257;-91
2021/01/26 11:10:54;;;;;;;46.20;19.85;;;;;;;1.35;83.40;98399.71;4282192;81;21209;-92
2021/01/26 11:16:56;;;;;;;38.02;18.15;;;;;;;1.31;83.19;98399.36;4278951;81;21166;-90
2021/01/26 11:22:57;;;;;;;40.90;16.93;;;;;;;1.28;83.21;98399.47;4284796;81;21209;-91
2021/01/26 11:28:59;;;;;;;34.08;17.25;;;;;;;1.32;83.42;98399.58;4290970;81;21824;-92
2021/01/26 11:35:04;;;;;;;33.75;15.80;;;;;;;1.53;83.41;98398.45;4310105;81;21186;-92
2021/01/26 12:01:28;;;;;;;39.35;19.25;;;;;;;1.07;83.04;98392.45;4217886;76;21254;-86
2021/01/26 12:07:29;;;;;;;43.05;17.37;;;;;;;0.98;83.62;98383.64;4160563;84;21270;-87
2021/01/26 14:26:29;;;;;;;27.93;14.23;;;;;;;0.05;82.10;98403.70;4319010;77;22783;31
2021/01/26 14:32:31;;;;;;;36.53;18.73;;;;;;;0.05;82.10;98403.70;4244917;81;21188;-86
2021/01/26 14:38:32;;;;;;;36.58;16.70;;;;;;;0.02;82.35;98426.65;4239399;82;21208;-87
2021/01/26 14:44:34;;;;;;;32.53;17.52;;;;;;;0.02;82.35;98426.65;4246836;82;21861;-86
2021/01/26 14:50:35;;;;;;;34.00;18.67;;;;;;;-0.08;82.43;98422.97;4282150;82;21194;-88
2021/01/26 14:56:37;;;;;;;42.93;20.72;;;;;;;-0.22;82.22;98427.73;4164454;82;27451;-87
2021/01/26 15:02:39;;;;;;;50.83;23.53;;;;;;;-0.32;82.44;98439.60;4033483;87;25546;-86
2021/01/26 15:08:41;;;;;;;41.60;20.87;;;;;;;-0.42;82.44;98441.25;4024046;87;21349;-87
2021/01/26 15:14:42;;;;;;;48.03;20.93;;;;;;;-0.48;82.51;98445.75;4190138;80;72447;-88
2021/01/26 15:20:44;;;;;;;43.07;20.77;;;;;;;-0.52;82.86;98456.34;4181982;83;21700;-88
2021/01/26 15:26:50;;;;;;;49.27;22.40;;;;;;;-0.51;82.70;98465.21;4177608;83;21166;-87
2021/01/26 15:32:52;;;;;;;45.03;21.70;;;;;;;-0.53;82.95;98474.94;4174886;83;21173;-87
2021/01/26 15:38:54;;;;;;;42.90;22.17;;;;;;;-0.49;83.19;98481.28;4172177;83;21319;-90
2021/01/26 15:44:56;;;;;;;45.77;21.27;;;;;;;-0.46;83.13;98480.66;4153114;84;21165;-89
2021/01/26 15:50:57;;;;;;;51.73;23.50;;;;;;;-0.43;83.17;98479.22;4154937;84;21221;-88
2021/01/26 15:57:00;;;;;;;42.88;22.35;;;;;;;-0.39;83.07;98490.91;4081361;85;21185;-89
2021/01/26 16:03:01;;;;;;;50.33;22.93;;;;;;;-0.36;82.78;98487.62;4173805;83;21170;-87
2021/01/26 16:09:05;;;;;;;51.33;24.03;;;;;;;-0.33;82.82;98499.86;4156829;84;21221;-87
2021/01/26 16:15:11;;;;;;;48.07;24.63;;;;;;;-0.30;82.70;98502.48;4165805;84;21173;-85
2021/01/26 16:21:12;;;;;;;47.53;21.80;;;;;;;-0.31;82.95;98500.89;4138723;84;21231;-85
2021/01/26 16:27:14;;;;;;;53.33;24.13;;;;;;;-0.38;83.01;98502.73;4137800;84;21685;-86
2021/01/26 16:33:16;;;;;;;50.83;24.27;;;;;;;-0.48;83.03;98503.02;4034141;86;21196;-85
2021/01/26 16:39:17;;;;;;;52.53;27.00;;;;;;;-0.51;83.21;98502.31;4139944;84;21178;-85
2021/01/26 16:45:23;;;;;;;53.40;26.77;;;;;;;-0.61;83.05;98497.22;4040374;86;21214;-85
2021/01/26 16:51:27;;;;;;;50.65;23.15;;;;;;;-0.72;83.32;98497.85;4147683;84;21150;-86
2021/01/26 16:57:32;;;;;;;52.70;25.47;;;;;;;-0.89;83.46;98504.53;4141657;84;21734;-86
2021/01/26 17:03:33;;;;;;;53.30;24.47;;;;;;;-0.99;83.55;98500.77;4135101;84;21715;-86
2021/01/26 17:09:35;;;;;;;67.73;30.97;;;;;;;-1.02;83.67;98505.43;4136342;84;21183;-85
2021/01/26 17:15:41;;;;;;;68.30;31.30;;;;;;;-1.03;84.03;98508.66;4138506;84;21813;-86
2021/01/26 17:21:45;;;;;;;76.90;33.20;;;;;;;-1.01;83.78;98510.48;4136060;84;21186;-86
2021/01/26 17:28:01;;;;;;;78.83;35.90;;;;;;;-1.00;83.97;98516.66;4589652;75;24302;-86
2021/01/26 17:40:24;;;;;;;83.43;44.13;;;;;;;-1.06;84.26;98516.00;4245562;74;101500;-86
2021/01/26 17:46:28;;;;;;;79.73;38.87;;;;;;;-0.92;84.30;98523.39;4173950;84;21200;-86
2021/01/26 22:03:20;;;;;;;59.97;25.77;;;;;;;-1.15;80.43;98633.90;4207329;80;21485;-85
2021/01/26 22:20:30;;;;;;;58.43;24.87;;;;;;;-1.07;80.54;98635.31;4461072;75;22411;-86
